Aviation Digital Data Service (ADDS)

Output produced by METARs form (0641 UTC 27 March 2017)
found at http://www.aviationweather.gov/adds/metars/
 
ESSA 270620Z 24005KT CAVOK 05/02 Q1016 R01L/09//95 R08/09//95 R01R/09//95 NOSIG
TAF ESSA 270530Z 2706/2806 30008KT CAVOK 
     TEMPO 2706/2710 24010KT 
     BECMG 2710/2713 30015G25KT 
     BECMG 2718/2720 33010KT
       
ESNX 270620Z 18009KT 1600 -SN FEW005 BKN007 M01/M02 Q0999
TAF AMD ESNX 270630Z 2706/2715 18007KT 9999 BKN030 
     PROB40 2706/2710 2000 -SN BKN008 
     BECMG 2710/2712 30015KT
       
ESCF 270620Z AUTO 23006KT 9999 NCD 05/04 Q1020
TAF ESCF 270450Z 2705/2714 24006KT CAVOK 
     BECMG 2709/2712 24013G26KT RMK MIL
       
TAF ESCM 270605Z 2706/2715 24007KT CAVOK 
     BECMG 2708/2711 27015G30KT RMK MIL
       
ESDF 270620Z 01003KT CAVOK 06/05 Q1023
TAF COR ESDF 270435Z 2705/2715 28008KT CAVOK 
     PROB30 2705/2707 1000 BR BKN002 
     PROB40 2707/2709 3000 BR BKN004 RMK MIL
       
ESGG 270620Z 21007KT 0150 R03/0350N R21/0350N FG VV002 02/02 Q1022 R21/09//95
TAF ESGG 270530Z 2706/2806 23008KT 0200 FG VV002 
     BECMG 2706/2708 9999 NSW 
     BECMG 2708/2710 BKN006 
     BECMG 2710/2712 NSC 
     BECMG 2720/2722 0300 FG VV002 
     BECMG 2800/2802 CAVOK
       
ESGJ 270620Z 22005KT CAVOK 04/03 Q1021
TAF ESGJ 270530Z 2706/2715 24006KT CAVOK
       
ESGR 270620Z AUTO 18005KT 9000 BR NCD 05/03 Q1020
ESGT 270620Z 21007KT 0800 R33/P1500 FG VV002 04/04 Q1022
TAF ESGT 270530Z 2706/2715 23008KT 0500 FG VV002 
     BECMG 2706/2708 3000 BR 
     BECMG 2708/2710 9999 NSW BKN006 
     BECMG 2710/2712 NSC
       
ESIB 270550Z 22009KT 0300 R01/0500D R19/0500N FG VV002 03/03 Q1021
TAF ESIB 270450Z 2705/2714 21008KT 0200 FG VV001 
     BECMG 2707/2710 9999 NSW SCT005 RMK MIL
       
ESKM 270620Z AUTO 27005KT 9999 NCD 07/02 Q1015
ESKN 270620Z 25007KT CAVOK 06/04 Q1019 R26/09//95
TAF ESKN 270530Z 2706/2806 26006KT CAVOK 
     BECMG 2711/2714 28015G25KT 
     BECMG 2719/2721 34010KT
       
ESMK 270620Z 30007KT 9999 OVC002 05/05 Q1023
TAF ESMK 270509Z 2706/2715 30008KT 6000 BR VV001 
     TEMPO 2706/2715 3000 BR SCT001
       
ESMQ 270620Z 29005KT CAVOK 06/05 Q1022
TAF ESMQ 270530Z 2706/2715 27005KT CAVOK
       
ESMS 270620Z 32008KT 0200 R17/0300V0450N R35/0375N FG VV002 04/04 Q1024 R88/19//95
TAF ESMS 270510Z 2706/2806 30008KT 0100 FG VV002 
     TEMPO 2706/2707 4000 BR BKN005 
     BECMG 2707/2709 6000 BR FEW005 
     TEMPO 2709/2712 BKN005 
     BECMG 2721/2724 3000 BR BKN005
       
ESMT 270620Z 27006KT 2000 BR OVC002 04/04 Q1024
TAF ESMT 270509Z 2706/2715 28006KT 0400 FG VV001 
     TEMPO 2706/2715 4000 BR BKN008
       
ESMX 270620Z VRB03KT 0250 R01/0600N R19/0400N FG VV002 03/02 Q1022
TAF ESMX 270530Z 2706/2715 27005KT 0200 FG VV002 
     BECMG 2706/2708 9999 NSW BKN006 
     BECMG 2708/2710 NSC
       
ESND 270620Z AUTO 25006KT 210V300 9999 OVC039/// 07/02 Q1012
ESNG 270620Z 18006KT CAVOK M03/M07 Q0997
TAF ESNG 270530Z 2706/2711 22007KT CAVOK 
     BECMG 2707/2709 1200 SN VV009 
     TEMPO 2709/2711 3000 BKN020
       
ESNK 270620Z AUTO 17007KT 9999 BKN028/// OVC037/// 04/01 Q1008
ESNL 270620Z AUTO 18006KT 140V220 9999 FEW022/// BKN043/// 03/M01 Q1001
ESNN 270620Z 13005KT 9999 BKN038 04/01 Q1010 R16/09//95
TAF ESNN 270530Z 2706/2715 18007KT 9999 OVC025 
     BECMG 2709/2711 27015G25KT 
     BECMG 2712/2714 33015G25KT
       
ESNO 270620Z 19007KT 3200 DZ BR BKN004 02/01 Q1007
TAF AMD ESNO 270630Z 2706/2715 20010KT 3000 -DZ BKN004 
     BECMG 2707/2709 9999 NSW FEW005 OVC025 
     BECMG 2709/2711 27018G28KT
       
ESNQ 270620Z VRB02KT CAVOK M05/M09 Q0995
TAF ESNQ 270530Z 2706/2715 22007KT CAVOK 
     BECMG 2707/2709 1400 SN VV009 
     TEMPO 2709/2715 3000 -SN BKN020 
     BECMG 2712/2714 34013KT
       
ESNS 270620Z 17006KT 9999 SG VV040 01/M01 Q1004
TAF ESNS 270530Z 2706/2715 23007KT 9999 -SN BKN040 
     BECMG 2706/2708 3000 
     TEMPO 2707/2712 1400 SN VV010 
     BECMG 2710/2712 27017G27KT 9999 -RA 
     BECMG 2712/2714 33015G25KT
       
ESNU 270620Z 20008KT 9999 -DZ VV025 02/M00 Q1006 R14/09//95
TAF ESNU 270530Z 2706/2715 22008KT CAVOK 
     BECMG 2706/2708 4000 -RASN 
     TEMPO 2707/2709 2000 RASN BKN006 
     BECMG 2709/2711 27018G28KT 9999 NSW 
     BECMG 2711/2713 33022G35KT
       
ESNV 270620Z AUTO 22011KT 9999 BKN026/// 04/01 Q1000
ESNX 270620Z 18009KT 1600 -SN FEW005 BKN007 M01/M02 Q0999
TAF AMD ESNX 270630Z 2706/2715 18007KT 9999 BKN030 
     PROB40 2706/2710 2000 -SN BKN008 
     BECMG 2710/2712 30015KT
       
ESNZ 270620Z 28015KT 9999 BKN018 06/04 Q1008
TAF ESNZ 270530Z 2706/2715 27017KT 9999 BKN015 
     BECMG 2706/2708 30025G40KT
       
ESOE 270620Z 23009KT CAVOK 05/05 Q1019
TAF ESOE 270530Z 2706/2715 23010KT CAVOK 
     BECMG 2709/2712 27015G25KT
       
ESOK 270620Z 22003KT CAVOK 05/04 Q1019
TAF ESOK 270530Z 2706/2715 24003KT CAVOK 
     BECMG 2709/2712 27013KT
       
ESOW 270620Z 22005KT 170V260 CAVOK 05/02 Q1018 R19/09//95
TAF ESOW 270530Z 2706/2715 25003KT CAVOK 
     BECMG 2709/2712 28015G25KT
       
ESPA 270620Z 22007KT 1200 +SN VV013 00/M04 Q1002
TAF AMD ESPA 270620Z 2706/2715 22005KT 9999 -SN BKN070 
     BECMG 2706/2708 4000 -SN BKN030 
     TEMPO 2706/2713 1000 SN VV010 
     BECMG 2710/2713 35010KT 
     BECMG 2712/2715 9999 BKN020
       
ESPE 270620Z 17003KT 130V230 2200 SN VV015 M01/M02 Q1000
TAF AMD ESPE 270625Z 2706/2714 22005KT 9999 BKN045 
     BECMG 2706/2708 4000 -SN BKN030 
     TEMPO 2706/2713 1000 SN VV008 
     PROB40 2706/2710 0700 +SN VV006 
     BECMG 2711/2714 33013KT 9999 SCT020
       
ESSA 270620Z 24005KT CAVOK 05/02 Q1016 R01L/09//95 R08/09//95 R01R/09//95 NOSIG
TAF ESSA 270530Z 2706/2806 30008KT CAVOK 
     TEMPO 2706/2710 24010KT 
     BECMG 2710/2713 30015G25KT 
     BECMG 2718/2720 33010KT
       
ESSB 270620Z 21004KT CAVOK 07/01 Q1017 R30/0///67
TAF ESSB 270530Z 2706/2724 27008KT CAVOK 
     BECMG 2710/2713 29015G25KT
       
ESSD 270620Z 27007KT CAVOK 08/03 Q1016
TAF ESSD 270530Z 2706/2715 20004KT CAVOK 
     BECMG 2708/2711 27015G25KT 
     BECMG 2713/2715 33017G27KT
       
ESSL 270620Z 25005KT CAVOK 06/04 Q1020 R29/09//95
TAF ESSL 270450Z 2705/2714 24006KT CAVOK 
     BECMG 2709/2712 24013G26KT RMK MIL
       
ESSP 270620Z 26005KT CAVOK 06/04 Q1020 R27/09//95
TAF ESSP 270530Z 2706/2715 24003KT CAVOK 
     BECMG 2708/2711 25013KT 
     BECMG 2711/2714 29015G25KT
       
ESST 270620Z 00000KT CAVOK 01/00 Q1018
ESSV 270620Z 30007KT CAVOK 06/03 Q1020 R21/09//95
TAF ESSV 270530Z 2706/2715 30008KT CAVOK 
     BECMG 2709/2712 23014KT
       
ESTA 270620Z 24005KT 0800 R14/1200D R32/P1500N FG OVC001 05/04 Q1024
TAF ESTA 270509Z 2706/2715 26008KT 0250 FG VV001 
     TEMPO 2706/2715 4000 BR BKN008
       
ESTL 270620Z AUTO 29008KT 1000NDV R29L/1700N VV002 05/05 Q1024
ESUD 270620Z AUTO 18006KT 9999 BKN041/// 04/M01 Q0999
ESUP 270620Z AUTO 22006KT 9999 NCD M03/M08 Q0998
ESUT 270620Z AUTO 34004KT 300V050 9999 -RA SCT014/// BKN019/// BKN023/// 02/01 Q0998
ESSD 270620Z 27007KT CAVOK 08/03 Q1016
TAF ESSD 270530Z 2706/2715 20004KT CAVOK 
     BECMG 2708/2711 27015G25KT 
     BECMG 2713/2715 33017G27KT
       
ESSB 270620Z 21004KT CAVOK 07/01 Q1017 R30/0///67
TAF ESSB 270530Z 2706/2724 27008KT CAVOK 
     BECMG 2710/2713 29015G25KT
       
ESNG 270620Z 18006KT CAVOK M03/M07 Q0997
TAF ESNG 270530Z 2706/2711 22007KT CAVOK 
     BECMG 2707/2709 1200 SN VV009 
     TEMPO 2709/2711 3000 BKN020
       
ESMT 270620Z 27006KT 2000 BR OVC002 04/04 Q1024
TAF ESMT 270509Z 2706/2715 28006KT 0400 FG VV001 
     TEMPO 2706/2715 4000 BR BKN008
       
ESUT 270620Z AUTO 34004KT 300V050 9999 -RA SCT014/// BKN019/// BKN023/// 02/01 Q0998
ESGJ 270620Z 22005KT CAVOK 04/03 Q1021
TAF ESGJ 270530Z 2706/2715 24006KT CAVOK
       
ESPA 270620Z 22007KT 1200 +SN VV013 00/M04 Q1002
TAF AMD ESPA 270620Z 2706/2715 22005KT 9999 -SN BKN070 
     BECMG 2706/2708 4000 -SN BKN030 
     TEMPO 2706/2713 1000 SN VV010 
     BECMG 2710/2713 35010KT 
     BECMG 2712/2715 9999 BKN020
       
ESMQ 270620Z 29005KT CAVOK 06/05 Q1022
TAF ESMQ 270530Z 2706/2715 27005KT CAVOK
       
TAF ESIA 270630Z 2706/2714 22005KT CAVOK 
     PROB30 2706/2709 0400 FG VV002
       
ESOK 270620Z 22003KT CAVOK 05/04 Q1019
TAF ESOK 270530Z 2706/2715 24003KT CAVOK 
     BECMG 2709/2712 27013KT
       
ESNQ 270620Z VRB02KT CAVOK M05/M09 Q0995
TAF ESNQ 270530Z 2706/2715 22007KT CAVOK 
     BECMG 2707/2709 1400 SN VV009 
     TEMPO 2709/2715 3000 -SN BKN020 
     BECMG 2712/2714 34013KT
       
ESNK 270620Z AUTO 17007KT 9999 BKN028/// OVC037/// 04/01 Q1008
ESMK 270620Z 30007KT 9999 OVC002 05/05 Q1023
TAF ESMK 270509Z 2706/2715 30008KT 6000 BR VV001 
     TEMPO 2706/2715 3000 BR SCT001
       
ESMX 270620Z VRB03KT 0250 R01/0600N R19/0400N FG VV002 03/02 Q1022
TAF ESMX 270530Z 2706/2715 27005KT 0200 FG VV002 
     BECMG 2706/2708 9999 NSW BKN006 
     BECMG 2708/2710 NSC
       
ESSP 270620Z 26005KT CAVOK 06/04 Q1020 R27/09//95
TAF ESSP 270530Z 2706/2715 24003KT CAVOK 
     BECMG 2708/2711 25013KT 
     BECMG 2711/2714 29015G25KT
       
ESGG 270620Z 21007KT 0150 R03/0350N R21/0350N FG VV002 02/02 Q1022 R21/09//95
TAF ESGG 270530Z 2706/2806 23008KT 0200 FG VV002 
     BECMG 2706/2708 9999 NSW 
     BECMG 2708/2710 BKN006 
     BECMG 2710/2712 NSC 
     BECMG 2720/2722 0300 FG VV002 
     BECMG 2800/2802 CAVOK
       
ESTL 270620Z AUTO 29008KT 1000NDV R29L/1700N VV002 05/05 Q1024
ESNL 270620Z AUTO 18006KT 140V220 9999 FEW022/// BKN043/// 03/M01 Q1001
ESCF 270620Z AUTO 23006KT 9999 NCD 05/04 Q1020
TAF ESCF 270450Z 2705/2714 24006KT CAVOK 
     BECMG 2709/2712 24013G26KT RMK MIL
       
ESKM 270620Z AUTO 27005KT 9999 NCD 07/02 Q1015
ESOE 270620Z 23009KT CAVOK 05/05 Q1019
TAF ESOE 270530Z 2706/2715 23010KT CAVOK 
     BECMG 2709/2712 27015G25KT
       
ESNO 270620Z 19007KT 3200 DZ BR BKN004 02/01 Q1007
TAF AMD ESNO 270630Z 2706/2715 20010KT 3000 -DZ BKN004 
     BECMG 2707/2709 9999 NSW FEW005 OVC025 
     BECMG 2709/2711 27018G28KT
       
ESUP 270620Z AUTO 22006KT 9999 NCD M03/M08 Q0998
ESDF 270620Z 01003KT CAVOK 06/05 Q1023
TAF COR ESDF 270435Z 2705/2715 28008KT CAVOK 
     PROB30 2705/2707 1000 BR BKN002 
     PROB40 2707/2709 3000 BR BKN004 RMK MIL
       
ESSL 270620Z 25005KT CAVOK 06/04 Q1020 R29/09//95
TAF ESSL 270450Z 2705/2714 24006KT CAVOK 
     BECMG 2709/2712 24013G26KT RMK MIL
       
ESIB 270550Z 22009KT 0300 R01/0500D R19/0500N FG VV002 03/03 Q1021
TAF ESIB 270450Z 2705/2714 21008KT 0200 FG VV001 
     BECMG 2707/2710 9999 NSW SCT005 RMK MIL
       
ESKN 270620Z 25007KT CAVOK 06/04 Q1019 R26/09//95
TAF ESKN 270530Z 2706/2806 26006KT CAVOK 
     BECMG 2711/2714 28015G25KT 
     BECMG 2719/2721 34010KT
       
ESNS 270620Z 17006KT 9999 SG VV040 01/M01 Q1004
TAF ESNS 270530Z 2706/2715 23007KT 9999 -SN BKN040 
     BECMG 2706/2708 3000 
     TEMPO 2707/2712 1400 SN VV010 
     BECMG 2710/2712 27017G27KT 9999 -RA 
     BECMG 2712/2714 33015G25KT
       
ESGR 270620Z AUTO 18005KT 9000 BR NCD 05/03 Q1020
ESUD 270620Z AUTO 18006KT 9999 BKN041/// 04/M01 Q0999
ESMS 270620Z 32008KT 0200 R17/0300V0450N R35/0375N FG VV002 04/04 Q1024 R88/19//95
TAF ESMS 270510Z 2706/2806 30008KT 0100 FG VV002 
     TEMPO 2706/2707 4000 BR BKN005 
     BECMG 2707/2709 6000 BR FEW005 
     TEMPO 2709/2712 BKN005 
     BECMG 2721/2724 3000 BR BKN005
       
ESNN 270620Z 13005KT 9999 BKN038 04/01 Q1010 R16/09//95
TAF ESNN 270530Z 2706/2715 18007KT 9999 OVC025 
     BECMG 2709/2711 27015G25KT 
     BECMG 2712/2714 33015G25KT
       
ESND 270620Z AUTO 25006KT 210V300 9999 OVC039/// 07/02 Q1012
ESST 270620Z 00000KT CAVOK 01/00 Q1018
ESGT 270620Z 21007KT 0800 R33/P1500 FG VV002 04/04 Q1022
TAF ESGT 270530Z 2706/2715 23008KT 0500 FG VV002 
     BECMG 2706/2708 3000 BR 
     BECMG 2708/2710 9999 NSW BKN006 
     BECMG 2710/2712 NSC
       
ESNU 270620Z 20008KT 9999 -DZ VV025 02/M00 Q1006 R14/09//95
TAF ESNU 270530Z 2706/2715 22008KT CAVOK 
     BECMG 2706/2708 4000 -RASN 
     TEMPO 2707/2709 2000 RASN BKN006 
     BECMG 2709/2711 27018G28KT 9999 NSW 
     BECMG 2711/2713 33022G35KT
       
TAF ESCM 270605Z 2706/2715 24007KT CAVOK 
     BECMG 2708/2711 27015G30KT RMK MIL
       
ESOW 270620Z 22005KT 170V260 CAVOK 05/02 Q1018 R19/09//95
TAF ESOW 270530Z 2706/2715 25003KT CAVOK 
     BECMG 2709/2712 28015G25KT
       
ESPE 270620Z 17003KT 130V230 2200 SN VV015 M01/M02 Q1000
TAF AMD ESPE 270625Z 2706/2714 22005KT 9999 BKN045 
     BECMG 2706/2708 4000 -SN BKN030 
     TEMPO 2706/2713 1000 SN VV008 
     PROB40 2706/2710 0700 +SN VV006 
     BECMG 2711/2714 33013KT 9999 SCT020
       
ESNV 270620Z AUTO 22011KT 9999 BKN026/// 04/01 Q1000
ESSV 270620Z 30007KT CAVOK 06/03 Q1020 R21/09//95
TAF ESSV 270530Z 2706/2715 30008KT CAVOK 
     BECMG 2709/2712 23014KT